createdAt,value
2023-03-19T00:00:43.437Z,98192.56
2023-03-19T00:20:46.038Z,98195.25
2023-03-19T00:40:49.663Z,98191.41
2023-03-19T01:00:53.668Z,98186.75
2023-03-19T01:20:56.528Z,98177.91
2023-03-19T01:40:58.998Z,98186.75
2023-03-19T02:01:01.568Z,98183.25
2023-03-19T02:21:04.298Z,98178.25
2023-03-19T02:41:06.731Z,98186.31
2023-03-19T03:01:09.485Z,98198.16
2023-03-19T03:21:12.897Z,98204.69
2023-03-19T03:41:15.323Z,98213.94
2023-03-19T04:01:18.145Z,98216.97
2023-03-19T04:21:20.978Z,98207.31
2023-03-19T04:41:23.892Z,98200.34
2023-03-19T05:01:26.590Z,98207.28
2023-03-19T05:21:29.402Z,98198.75
2023-03-19T05:41:32.110Z,98207.59
2023-03-19T06:01:34.642Z,98208.13
2023-03-19T06:21:37.617Z,98215.06
2023-03-19T06:41:40.088Z,98217.25
2023-03-19T07:01:42.796Z,98230.44
2023-03-19T07:21:45.657Z,98238.53
2023-03-19T07:41:51.164Z,98225.25
2023-03-19T08:01:53.888Z,98236.59
2023-03-19T08:21:57.029Z,98231.03
2023-03-19T08:41:59.923Z,98215.56
2023-03-19T09:02:02.782Z,98210.78
2023-03-19T09:22:07.703Z,98214.06
2023-03-19T09:42:10.341Z,98215.56
2023-03-19T10:02:12.907Z,98201.69
2023-03-19T10:22:15.678Z,98190.50
2023-03-19T10:42:18.084Z,98175.19
2023-03-19T11:02:20.989Z,98167.41
2023-03-19T11:22:24.890Z,98142.56
2023-03-19T11:42:27.373Z,98103.84
2023-03-19T12:02:30.135Z,98084.56
2023-03-19T12:22:33.037Z,98065.34
2023-03-19T12:42:38.864Z,98047.81
2023-03-19T13:02:41.508Z,98040.63
2023-03-19T13:22:46.653Z,98013.53
2023-03-19T13:42:49.913Z,98005.16
2023-03-19T14:02:52.632Z,98014.94
2023-03-19T14:22:58.287Z,97985.22
2023-03-19T14:43:00.784Z,97971.38
2023-03-19T15:03:03.364Z,97967.41
2023-03-19T15:23:16.447Z,97973.66
2023-03-19T15:43:29.634Z,97965.94
2023-03-19T16:03:32.236Z,97970.62
2023-03-19T16:23:34.973Z,97988.91
2023-03-19T16:43:38.181Z,97987.25
2023-03-19T17:03:40.929Z,98000.31
2023-03-19T17:23:43.602Z,98010.38
2023-03-19T17:43:46.270Z,98028.03
2023-03-19T18:03:48.775Z,98034.78
2023-03-19T18:23:51.581Z,98036.22
2023-03-19T18:43:53.995Z,98043.22
2023-03-19T19:03:56.721Z,98056.25
2023-03-19T19:23:59.359Z,98052.94
2023-03-19T19:44:04.325Z,98076.81
2023-03-19T20:04:07.316Z,98091.09
2023-03-19T20:24:10.059Z,98084.16
2023-03-19T20:44:12.877Z,98079.19
2023-03-19T21:04:15.368Z,98085.59
2023-03-19T21:24:18.357Z,98091.09
2023-03-19T21:44:23.376Z,98081.13
2023-03-19T22:04:26.028Z,98088.00
2023-03-19T22:24:28.738Z,98075.59
2023-03-19T22:44:31.203Z,98071.47
2023-03-19T23:04:33.859Z,98053.03
2023-03-19T23:24:36.652Z,98042.13
2023-03-19T23:44:39.413Z,98053.22
